createdAt,value
2023-02-06T00:00:15.055Z,1.00
2023-02-06T00:01:15.030Z,1.00
2023-02-06T00:02:15.030Z,1.00
2023-02-06T00:03:15.022Z,1.00
2023-02-06T00:04:15.006Z,1.00
2023-02-06T00:05:15.076Z,1.00
2023-02-06T00:06:14.975Z,1.00
2023-02-06T00:07:14.980Z,1.00
2023-02-06T00:08:14.983Z,1.00
2023-02-06T00:09:14.979Z,1.00
2023-02-06T00:10:14.970Z,1.00
2023-02-06T00:11:14.960Z,1.00
2023-02-06T00:12:14.934Z,1.00
2023-02-06T00:13:14.932Z,1.00
2023-02-06T00:14:14.933Z,1.00
2023-02-06T00:15:14.941Z,1.00
2023-02-06T00:16:14.937Z,1.00
2023-02-06T00:17:14.914Z,1.00
2023-02-06T00:18:14.933Z,1.00
2023-02-06T00:19:14.929Z,1.00
2023-02-06T00:20:14.909Z,1.00
2023-02-06T00:21:14.897Z,1.00
2023-02-06T00:22:14.898Z,1.00
2023-02-06T00:23:14.887Z,1.00
2023-02-06T00:24:14.887Z,1.00
2023-02-06T00:25:14.886Z,1.00
2023-02-06T00:26:14.866Z,1.00
2023-02-06T00:27:14.854Z,1.00
2023-02-06T00:28:14.879Z,1.00
2023-02-06T00:29:14.864Z,1.00
2023-02-06T00:30:14.867Z,1.00
2023-02-06T00:31:14.969Z,1.00
2023-02-06T00:32:14.889Z,1.00
2023-02-06T00:33:14.867Z,1.00
2023-02-06T00:34:14.904Z,1.00
2023-02-06T00:35:14.825Z,1.00
2023-02-06T00:36:14.850Z,1.00
2023-02-06T00:37:14.817Z,1.00
2023-02-06T00:38:14.814Z,1.00
2023-02-06T00:39:14.829Z,1.00
2023-02-06T00:40:14.805Z,1.00
2023-02-06T00:41:14.818Z,1.00
2023-02-06T00:42:14.803Z,1.00
2023-02-06T00:43:14.794Z,1.00
2023-02-06T00:44:14.767Z,1.00
2023-02-06T00:45:14.777Z,1.00
2023-02-06T00:46:14.857Z,1.00
2023-02-06T00:47:14.788Z,1.00
2023-02-06T00:48:14.765Z,1.00
2023-02-06T00:49:14.767Z,1.00
2023-02-06T00:50:14.743Z,1.00
2023-02-06T00:51:14.752Z,1.00
2023-02-06T00:52:14.725Z,1.00
2023-02-06T00:53:14.723Z,1.00
2023-02-06T00:54:14.727Z,1.00
2023-02-06T00:55:14.730Z,1.00
2023-02-06T00:56:14.721Z,1.00
2023-02-06T00:57:14.704Z,1.00
2023-02-06T00:58:14.723Z,1.00
2023-02-06T00:59:14.691Z,1.00
2023-02-06T01:00:14.674Z,1.00
2023-02-06T01:01:14.721Z,1.00
2023-02-06T01:02:14.653Z,1.00
2023-02-06T01:03:14.674Z,1.00
2023-02-06T01:04:14.653Z,1.00
2023-02-06T01:05:14.648Z,1.00
2023-02-06T01:06:14.650Z,1.00
2023-02-06T01:07:14.638Z,1.00
2023-02-06T01:08:14.649Z,1.00
2023-02-06T01:09:14.621Z,1.00
2023-02-06T01:10:14.628Z,1.00
2023-02-06T01:11:14.616Z,1.00
2023-02-06T01:12:14.602Z,1.00
2023-02-06T01:13:14.636Z,1.00
2023-02-06T01:14:14.585Z,1.00
2023-02-06T01:15:14.593Z,1.00
2023-02-06T01:16:14.624Z,1.00
2023-02-06T01:17:14.578Z,1.00
2023-02-06T01:18:14.564Z,1.00
2023-02-06T01:19:14.579Z,1.00
2023-02-06T01:20:14.568Z,1.00
2023-02-06T01:21:14.569Z,1.00
2023-02-06T01:22:14.571Z,1.00
2023-02-06T01:23:14.538Z,1.00
2023-02-06T01:24:14.529Z,1.00
2023-02-06T01:25:14.557Z,1.00
2023-02-06T01:26:14.554Z,1.00
2023-02-06T01:27:14.511Z,1.00
2023-02-06T01:28:14.550Z,1.00
2023-02-06T01:29:14.518Z,1.00
2023-02-06T01:30:14.503Z,1.00
2023-02-06T01:31:14.532Z,1.00
2023-02-06T01:32:14.491Z,1.00
2023-02-06T01:33:14.477Z,1.00
2023-02-06T01:34:14.504Z,1.00
2023-02-06T01:35:14.459Z,1.00
2023-02-06T01:36:14.459Z,1.00
2023-02-06T01:37:14.464Z,1.00
2023-02-06T01:38:14.454Z,1.00
2023-02-06T01:39:14.468Z,1.00
2023-02-06T01:40:14.438Z,1.00
2023-02-06T01:41:14.428Z,1.00
2023-02-06T01:42:14.418Z,1.00
2023-02-06T01:43:14.427Z,1.00
2023-02-06T01:44:14.404Z,1.00
2023-02-06T01:45:14.424Z,1.00
2023-02-06T01:46:14.439Z,1.00
2023-02-06T01:47:14.404Z,1.00
2023-02-06T01:48:14.392Z,1.00
2023-02-06T01:49:14.391Z,1.00
2023-02-06T01:50:14.387Z,1.00
2023-02-06T01:51:14.399Z,1.00
2023-02-06T01:52:14.498Z,1.00
2023-02-06T01:53:14.377Z,1.00
2023-02-06T01:54:14.358Z,1.00
2023-02-06T01:55:14.359Z,1.00
2023-02-06T01:56:14.365Z,1.00
2023-02-06T01:57:14.338Z,1.00
2023-02-06T01:58:14.338Z,1.00
2023-02-06T01:59:14.336Z,1.00
2023-02-06T02:00:14.331Z,1.00
2023-02-06T02:01:14.329Z,1.00
2023-02-06T02:02:14.374Z,1.00
2023-02-06T02:03:14.311Z,1.00
2023-02-06T02:04:14.296Z,1.00
2023-02-06T02:05:14.309Z,1.00
2023-02-06T02:06:14.287Z,1.00
2023-02-06T02:07:14.281Z,1.00
2023-02-06T02:08:14.308Z,1.00
2023-02-06T02:09:14.446Z,1.00
2023-02-06T02:10:14.282Z,1.00
2023-02-06T02:11:14.302Z,1.00
2023-02-06T02:12:14.285Z,1.00
2023-02-06T02:13:14.256Z,1.00
2023-02-06T02:14:14.248Z,1.00
2023-02-06T02:15:14.270Z,1.00
2023-02-06T02:16:14.276Z,1.00
2023-02-06T02:17:14.236Z,1.00
2023-02-06T02:18:14.259Z,1.00
2023-02-06T02:19:14.230Z,1.00
2023-02-06T02:20:14.247Z,1.00
2023-02-06T02:21:14.217Z,1.00
2023-02-06T02:22:14.213Z,1.00
2023-02-06T02:23:14.209Z,1.00
2023-02-06T02:24:14.227Z,1.00
2023-02-06T02:25:14.194Z,1.00
2023-02-06T02:26:14.194Z,1.00
2023-02-06T02:27:14.172Z,1.00
2023-02-06T02:28:14.207Z,1.00
2023-02-06T02:29:14.159Z,1.00
2023-02-06T02:30:14.183Z,1.00
2023-02-06T02:31:14.220Z,1.00
2023-02-06T02:32:14.149Z,1.00
2023-02-06T02:33:14.138Z,1.00
2023-02-06T02:34:14.130Z,1.00
2023-02-06T02:35:14.133Z,1.00
2023-02-06T02:36:14.142Z,1.00
2023-02-06T02:37:14.120Z,1.00
2023-02-06T02:38:14.124Z,1.00
2023-02-06T02:39:14.104Z,1.00
2023-02-06T02:40:14.091Z,1.00
2023-02-06T02:41:14.143Z,1.00
2023-02-06T02:42:14.085Z,1.00
2023-02-06T02:43:14.104Z,1.00
2023-02-06T02:44:21.122Z,1.00
2023-02-06T02:45:14.073Z,1.00
2023-02-06T02:46:14.084Z,1.00
2023-02-06T02:47:14.081Z,1.00
2023-02-06T02:48:14.044Z,1.00
2023-02-06T02:49:14.068Z,1.00
2023-02-06T02:50:14.040Z,1.00
2023-02-06T02:51:14.028Z,1.00
2023-02-06T02:52:14.014Z,1.00
2023-02-06T02:53:14.045Z,1.00
2023-02-06T02:54:14.010Z,1.00
2023-02-06T02:55:14.003Z,1.00
2023-02-06T02:56:14.111Z,1.00
2023-02-06T02:57:13.996Z,1.00
2023-02-06T02:58:13.978Z,1.00
2023-02-06T02:59:14.005Z,1.00
2023-02-06T03:00:13.974Z,1.00
2023-02-06T03:01:13.981Z,1.00
2023-02-06T03:02:13.996Z,1.00
2023-02-06T03:03:13.957Z,1.00
2023-02-06T03:04:13.950Z,1.00
2023-02-06T03:05:13.967Z,1.00
2023-02-06T03:06:13.952Z,1.00
2023-02-06T03:07:13.927Z,1.00
2023-02-06T03:08:13.939Z,1.00
2023-02-06T03:09:13.912Z,1.00
2023-02-06T03:10:13.907Z,1.00
2023-02-06T03:11:13.949Z,1.00
2023-02-06T03:12:13.889Z,1.00
2023-02-06T03:13:13.890Z,1.00
2023-02-06T03:14:13.878Z,1.00
2023-02-06T03:15:13.877Z,1.00
2023-02-06T03:16:13.936Z,1.00
2023-02-06T03:17:13.869Z,1.00
2023-02-06T03:18:13.859Z,1.00
2023-02-06T03:19:13.850Z,1.00
2023-02-06T03:20:13.855Z,1.00
2023-02-06T03:21:13.865Z,1.00
2023-02-06T03:22:13.852Z,1.00
2023-02-06T03:23:13.834Z,1.00
2023-02-06T03:24:13.822Z,1.00
2023-02-06T03:25:13.846Z,1.00
2023-02-06T03:26:13.808Z,1.00
2023-02-06T03:27:13.835Z,1.00
2023-02-06T03:28:13.845Z,1.00
2023-02-06T03:29:13.791Z,1.00
2023-02-06T03:30:13.777Z,1.00
2023-02-06T03:31:13.791Z,1.00
2023-02-06T03:32:13.768Z,1.00
2023-02-06T03:33:13.759Z,1.00
2023-02-06T03:34:13.755Z,1.00
2023-02-06T03:35:13.766Z,1.00
2023-02-06T03:36:13.739Z,1.00
2023-02-06T03:37:13.739Z,1.00
2023-02-06T03:38:13.730Z,1.00
2023-02-06T03:39:13.721Z,1.00
2023-02-06T03:40:13.742Z,1.00
2023-02-06T03:41:13.722Z,1.00
2023-02-06T03:42:13.719Z,1.00
2023-02-06T03:44:46.750Z,1.00
2023-02-06T03:45:40.380Z,1.00
2023-02-06T03:46:40.231Z,1.00
2023-02-06T03:47:40.224Z,1.00
2023-02-06T03:48:40.204Z,1.00
2023-02-06T03:49:40.221Z,1.00
2023-02-06T03:50:40.207Z,1.00
2023-02-06T03:51:40.179Z,1.00
2023-02-06T03:52:40.191Z,1.00
2023-02-06T03:53:40.168Z,1.00
2023-02-06T03:54:40.174Z,1.00
2023-02-06T03:55:40.173Z,1.00
2023-02-06T03:56:40.163Z,1.00
2023-02-06T03:57:40.150Z,1.00
2023-02-06T03:59:50.573Z,1.00
2023-02-06T04:00:50.592Z,1.00
2023-02-06T04:01:50.569Z,1.00
2023-02-06T04:02:50.558Z,1.00
2023-02-06T04:03:50.552Z,1.00
2023-02-06T04:04:50.548Z,1.00
2023-02-06T04:05:50.549Z,1.00
2023-02-06T04:06:50.559Z,1.00
2023-02-06T04:07:50.531Z,1.00
2023-02-06T04:08:50.526Z,1.00
2023-02-06T04:09:50.521Z,1.00
2023-02-06T04:10:50.516Z,1.00
2023-02-06T04:11:50.503Z,1.00
2023-02-06T04:12:50.505Z,1.00
2023-02-06T04:13:50.507Z,1.00
2023-02-06T04:14:50.480Z,1.00
2023-02-06T04:15:50.480Z,1.00
2023-02-06T04:16:50.491Z,1.00
2023-02-06T04:17:59.840Z,1.00
2023-02-06T04:18:50.459Z,1.00
2023-02-06T04:19:50.477Z,1.00
2023-02-06T04:20:50.444Z,1.00
2023-02-06T04:21:50.447Z,1.00
2023-02-06T04:22:50.432Z,1.00
2023-02-06T04:23:50.441Z,1.00
2023-02-06T04:24:50.427Z,1.00
2023-02-06T04:25:50.439Z,1.00
2023-02-06T04:26:50.444Z,1.00
2023-02-06T04:27:50.448Z,1.00
2023-02-06T04:28:50.424Z,1.00
2023-02-06T04:29:50.400Z,1.00
2023-02-06T04:30:50.548Z,1.00
2023-02-06T04:31:50.390Z,1.00
2023-02-06T04:32:50.384Z,1.00
2023-02-06T04:33:50.395Z,1.00
2023-02-06T04:34:50.372Z,1.00
2023-02-06T04:35:50.360Z,1.00
2023-02-06T04:36:50.354Z,1.00
2023-02-06T04:37:50.363Z,1.00
2023-02-06T04:38:50.350Z,1.00
2023-02-06T04:39:50.364Z,1.00
2023-02-06T04:40:50.328Z,1.00
2023-02-06T04:41:50.324Z,1.00
2023-02-06T04:42:50.319Z,1.00
2023-02-06T04:43:50.353Z,1.00
2023-02-06T04:44:50.294Z,1.00
2023-02-06T04:45:50.321Z,1.00
2023-02-06T04:46:50.291Z,1.00
2023-02-06T04:47:50.286Z,1.00
2023-02-06T04:48:50.276Z,1.00
2023-02-06T04:49:50.307Z,1.00
2023-02-06T04:50:50.271Z,1.00
2023-02-06T04:51:50.265Z,1.00
2023-02-06T04:52:50.286Z,1.00
2023-02-06T04:53:50.257Z,1.00
2023-02-06T04:54:50.239Z,1.00
2023-02-06T04:55:50.254Z,1.00
2023-02-06T04:56:50.227Z,1.00
2023-02-06T04:57:50.246Z,1.00
2023-02-06T04:58:50.227Z,1.00
2023-02-06T04:59:50.221Z,1.00
2023-02-06T05:00:50.206Z,1.00
2023-02-06T05:01:50.229Z,1.00
2023-02-06T05:02:50.238Z,1.00
2023-02-06T05:03:50.361Z,1.00
2023-02-06T05:04:50.177Z,1.00
2023-02-06T05:05:50.170Z,1.00
2023-02-06T05:06:50.170Z,1.00
2023-02-06T05:07:50.155Z,1.00
2023-02-06T05:08:50.170Z,1.00
2023-02-06T05:09:50.144Z,1.00
2023-02-06T05:10:50.138Z,1.00
2023-02-06T05:11:50.133Z,1.00
2023-02-06T05:12:50.119Z,1.00
2023-02-06T05:13:50.126Z,1.00
2023-02-06T05:14:50.125Z,1.00
2023-02-06T05:15:50.130Z,1.00
2023-02-06T05:16:50.120Z,1.00
2023-02-06T05:17:50.087Z,1.00
2023-02-06T05:18:50.079Z,1.00
2023-02-06T05:19:50.103Z,1.00
2023-02-06T05:20:50.100Z,1.00
2023-02-06T05:21:50.062Z,1.00
2023-02-06T05:22:50.049Z,1.00
2023-02-06T05:23:50.051Z,1.00
2023-02-06T05:24:50.041Z,1.00
2023-02-06T05:25:50.056Z,1.00
2023-02-06T05:26:50.038Z,1.00
2023-02-06T05:27:50.050Z,1.00
2023-02-06T05:28:50.033Z,1.00
2023-02-06T05:29:50.039Z,1.00
2023-02-06T05:30:50.057Z,1.00
2023-02-06T05:31:50.054Z,1.00
2023-02-06T05:32:50.003Z,1.00
2023-02-06T05:33:52.216Z,1.00
2023-02-06T05:34:50.017Z,1.00
2023-02-06T05:35:49.982Z,1.00
2023-02-06T05:36:49.983Z,1.00
2023-02-06T05:37:49.972Z,1.00
2023-02-06T05:38:49.969Z,1.00
2023-02-06T05:39:49.951Z,1.00
2023-02-06T05:40:49.941Z,1.00
2023-02-06T05:41:49.937Z,1.00
2023-02-06T05:42:49.944Z,1.00
2023-02-06T05:43:49.915Z,1.00
2023-02-06T05:44:49.922Z,1.00
2023-02-06T05:45:49.913Z,1.00
2023-02-06T05:46:49.901Z,1.00
2023-02-06T05:47:49.898Z,1.00
2023-02-06T05:48:49.912Z,1.00
2023-02-06T05:49:49.898Z,1.00
2023-02-06T05:50:49.879Z,1.00
2023-02-06T05:51:49.873Z,1.00
2023-02-06T05:52:49.877Z,1.00
2023-02-06T05:53:49.867Z,1.00
2023-02-06T05:54:49.885Z,1.00
2023-02-06T05:55:49.857Z,1.00
2023-02-06T05:56:49.866Z,1.00
2023-02-06T05:57:49.839Z,1.00
2023-02-06T05:58:49.831Z,1.00
2023-02-06T05:59:49.862Z,1.00
2023-02-06T06:00:49.826Z,1.00
2023-02-06T06:01:49.817Z,1.00
2023-02-06T06:02:49.815Z,1.00
2023-02-06T06:03:49.872Z,1.00
2023-02-06T06:04:49.819Z,1.00
2023-02-06T06:05:49.825Z,1.00
2023-02-06T06:06:49.778Z,1.00
2023-02-06T06:07:49.780Z,0.00
2023-02-06T06:08:49.773Z,0.00
2023-02-06T06:09:49.759Z,1.00
2023-02-06T06:10:49.756Z,0.00
2023-02-06T06:11:49.807Z,0.00
2023-02-06T06:12:49.742Z,0.00
2023-02-06T06:13:49.746Z,0.00
2023-02-06T06:14:49.730Z,0.00
2023-02-06T06:15:49.767Z,1.00
2023-02-06T06:16:49.718Z,1.00
2023-02-06T06:17:49.741Z,1.00
2023-02-06T06:18:49.708Z,1.00
2023-02-06T06:19:49.714Z,1.00
2023-02-06T06:20:49.721Z,1.00
2023-02-06T06:21:49.698Z,1.00
2023-02-06T06:22:49.696Z,2.00
2023-02-06T06:23:49.677Z,2.00
2023-02-06T06:24:49.677Z,1.00
2023-02-06T06:25:49.691Z,2.00
2023-02-06T06:26:49.657Z,2.00
2023-02-06T06:27:49.668Z,2.00
2023-02-06T06:28:49.638Z,2.00
2023-02-06T06:29:49.652Z,3.00
2023-02-06T06:30:49.677Z,4.00
2023-02-06T06:31:49.669Z,6.00
2023-02-06T06:32:49.614Z,5.00
2023-02-06T06:33:49.626Z,5.00
2023-02-06T06:34:49.608Z,5.00
2023-02-06T06:35:49.619Z,5.00
2023-02-06T06:36:49.612Z,4.00
2023-02-06T06:37:49.594Z,8.00
2023-02-06T06:38:49.584Z,10.00
2023-02-06T06:39:49.586Z,10.00
2023-02-06T06:40:49.566Z,11.00
2023-02-06T06:41:49.558Z,10.00
2023-02-06T06:42:49.569Z,11.00
2023-02-06T06:43:51.467Z,12.00
2023-02-06T06:44:49.545Z,12.00
2023-02-06T06:45:49.557Z,14.00
2023-02-06T06:46:49.547Z,14.00
2023-02-06T06:47:49.521Z,17.00
2023-02-06T06:48:49.514Z,17.00
2023-02-06T06:49:49.507Z,17.00
2023-02-06T06:50:49.504Z,20.00
2023-02-06T06:51:49.500Z,21.00
2023-02-06T06:52:49.527Z,22.00
2023-02-06T06:53:49.488Z,22.00
2023-02-06T06:54:50.902Z,24.00
2023-02-06T06:55:49.563Z,25.00
2023-02-06T06:56:49.465Z,28.00
2023-02-06T06:57:49.457Z,30.00
2023-02-06T06:58:49.450Z,31.00
2023-02-06T06:59:49.448Z,34.00
2023-02-06T07:00:49.475Z,36.00
2023-02-06T07:01:49.431Z,39.00
2023-02-06T07:02:49.490Z,40.00
2023-02-06T07:03:49.440Z,41.00
2023-02-06T07:04:49.427Z,43.00
2023-02-06T07:05:50.775Z,46.00
2023-02-06T07:06:49.436Z,50.00
2023-02-06T07:07:49.416Z,51.00
2023-02-06T07:08:49.391Z,50.00
2023-02-06T07:09:49.380Z,56.00
2023-02-06T07:10:49.378Z,60.00
2023-02-06T07:11:49.368Z,65.00
2023-02-06T07:12:49.371Z,69.00
2023-02-06T07:13:49.392Z,74.00
2023-02-06T07:14:49.351Z,79.00
2023-02-06T07:15:49.358Z,87.00
2023-02-06T07:16:49.343Z,97.00
2023-02-06T07:17:49.366Z,113.00
2023-02-06T07:18:49.327Z,131.00
2023-02-06T07:19:49.320Z,157.00
2023-02-06T07:20:49.313Z,196.00
2023-02-06T07:21:49.326Z,257.00
2023-02-06T07:22:49.313Z,313.00
2023-02-06T07:23:49.302Z,323.00
2023-02-06T07:24:49.311Z,287.00
2023-02-06T07:25:49.303Z,243.00
2023-02-06T07:26:49.275Z,229.00
2023-02-06T07:27:49.431Z,234.00
2023-02-06T07:28:49.268Z,239.00
2023-02-06T07:29:49.318Z,253.00
2023-02-06T07:30:49.292Z,254.00
2023-02-06T07:31:49.276Z,234.00
2023-02-06T07:32:49.269Z,238.00
2023-02-06T07:33:49.242Z,271.00
2023-02-06T07:34:49.236Z,342.00
2023-02-06T07:35:49.260Z,440.00
2023-02-06T07:36:49.229Z,493.00
2023-02-06T07:37:49.213Z,467.00
2023-02-06T07:38:49.210Z,461.00
2023-02-06T07:39:49.209Z,443.00
2023-02-06T07:40:49.195Z,530.00
2023-02-06T07:41:49.210Z,656.00
2023-02-06T07:42:49.191Z,719.00
2023-02-06T07:43:49.210Z,718.00
2023-02-06T07:44:49.177Z,738.00
2023-02-06T07:45:49.204Z,734.00
2023-02-06T07:46:49.190Z,709.00
2023-02-06T07:47:49.168Z,762.00
2023-02-06T07:48:49.149Z,803.00
2023-02-06T07:49:49.145Z,765.00
2023-02-06T07:50:49.162Z,705.00
2023-02-06T07:51:49.152Z,623.00
2023-02-06T07:52:49.143Z,618.00
2023-02-06T07:53:49.129Z,577.00
2023-02-06T07:54:49.118Z,595.00
2023-02-06T07:55:49.124Z,682.00
2023-02-06T07:56:49.107Z,726.00
2023-02-06T07:57:49.143Z,732.00
2023-02-06T07:58:49.100Z,810.00
2023-02-06T07:59:49.106Z,931.00
2023-02-06T08:00:49.125Z,999.00
2023-02-06T08:01:49.091Z,1094.00
2023-02-06T08:02:49.077Z,1197.00
2023-02-06T08:03:49.100Z,1118.00
2023-02-06T08:04:49.063Z,928.00
2023-02-06T08:05:49.080Z,757.00
2023-02-06T08:06:49.069Z,669.00
2023-02-06T08:07:49.055Z,696.00
2023-02-06T08:08:49.052Z,680.00
2023-02-06T08:09:49.046Z,634.00
2023-02-06T08:10:49.033Z,626.00
2023-02-06T08:11:49.071Z,646.00
2023-02-06T08:12:49.039Z,651.00
2023-02-06T08:13:49.018Z,691.00
2023-02-06T08:14:49.004Z,763.00
2023-02-06T08:15:49.029Z,795.00
2023-02-06T08:16:49.027Z,713.00
2023-02-06T08:17:48.986Z,626.00
2023-02-06T08:18:48.977Z,531.00
2023-02-06T08:19:48.984Z,478.00
2023-02-06T08:20:48.971Z,470.00
2023-02-06T08:21:48.986Z,469.00
2023-02-06T08:22:48.961Z,467.00
2023-02-06T08:23:48.982Z,471.00
2023-02-06T08:24:48.946Z,477.00
2023-02-06T08:25:48.952Z,492.00
2023-02-06T08:26:48.964Z,522.00
2023-02-06T08:27:48.948Z,563.00
2023-02-06T08:28:48.914Z,592.00
2023-02-06T08:29:48.914Z,617.00
2023-02-06T08:30:49.048Z,628.00
2023-02-06T08:31:48.961Z,630.00
2023-02-06T08:32:48.898Z,629.00
2023-02-06T08:33:48.881Z,630.00
2023-02-06T08:34:48.876Z,639.00
2023-02-06T08:35:48.886Z,663.00
2023-02-06T08:36:48.877Z,717.00
2023-02-06T08:37:48.878Z,710.00
2023-02-06T08:38:48.854Z,702.00
2023-02-06T08:39:48.882Z,706.00
2023-02-06T08:40:48.838Z,714.00
2023-02-06T08:41:48.841Z,710.00
2023-02-06T08:42:48.835Z,735.00
2023-02-06T08:43:48.834Z,784.00
2023-02-06T08:44:48.822Z,826.00
2023-02-06T08:45:48.874Z,876.00
2023-02-06T08:46:52.291Z,900.00
2023-02-06T08:47:49.800Z,945.00
2023-02-06T08:48:48.812Z,1041.00
2023-02-06T08:49:48.796Z,1117.00
2023-02-06T08:50:48.812Z,1181.00
2023-02-06T08:51:48.771Z,1226.00
2023-02-06T08:52:48.779Z,1178.00
2023-02-06T08:53:48.778Z,1191.00
2023-02-06T08:54:48.784Z,1200.00
2023-02-06T08:55:48.770Z,1172.00
2023-02-06T08:56:48.791Z,1110.00
2023-02-06T08:57:48.759Z,1008.00
2023-02-06T08:58:48.734Z,981.00
2023-02-06T08:59:48.729Z,1015.00
2023-02-06T09:00:48.723Z,1147.00
2023-02-06T09:01:48.775Z,1361.00
2023-02-06T09:02:48.768Z,1549.00
2023-02-06T09:03:48.705Z,1673.00
2023-02-06T09:04:48.695Z,1808.00
2023-02-06T09:05:48.707Z,1979.00
2023-02-06T09:06:48.704Z,2126.00
2023-02-06T09:07:48.676Z,2239.00
2023-02-06T09:08:48.679Z,2306.00
2023-02-06T09:09:48.655Z,2393.00
2023-02-06T09:10:48.652Z,2527.00
2023-02-06T09:11:48.681Z,2711.00
2023-02-06T09:12:48.635Z,3266.00
2023-02-06T09:13:49.447Z,3030.00
2023-02-06T09:14:48.685Z,2984.00
2023-02-06T09:15:48.638Z,3070.00
2023-02-06T09:16:48.605Z,3146.00
2023-02-06T09:17:48.601Z,3369.00
2023-02-06T09:18:48.674Z,3746.00
2023-02-06T09:19:48.849Z,3906.00
2023-02-06T09:20:48.595Z,4052.00
2023-02-06T09:21:48.564Z,4655.00
2023-02-06T09:22:48.589Z,4282.00
2023-02-06T09:23:48.561Z,4334.00
2023-02-06T09:24:48.545Z,4904.00
2023-02-06T09:25:48.561Z,5281.00
2023-02-06T09:27:00.933Z,7436.00
2023-02-06T09:27:49.590Z,6433.00
2023-02-06T09:28:48.527Z,6667.00
2023-02-06T09:29:48.525Z,7245.00
2023-02-06T09:30:48.666Z,6475.00
2023-02-06T09:31:48.511Z,7704.00
2023-02-06T09:32:48.517Z,6750.00
2023-02-06T09:33:48.498Z,8488.00
2023-02-06T09:34:49.277Z,9328.00
2023-02-06T09:35:48.495Z,11068.00
2023-02-06T09:36:48.478Z,16407.00
2023-02-06T09:37:48.477Z,10168.00
2023-02-06T09:38:48.496Z,13934.00
2023-02-06T09:39:48.486Z,13379.00
2023-02-06T09:40:48.461Z,12694.00
2023-02-06T09:41:48.453Z,12765.00
2023-02-06T09:42:48.473Z,14807.00
2023-02-06T09:43:48.437Z,12634.00
2023-02-06T09:44:48.430Z,16457.00
2023-02-06T09:45:48.436Z,14142.00
2023-02-06T09:46:48.419Z,15171.00
2023-02-06T09:47:48.427Z,13854.00
2023-02-06T09:48:48.425Z,14109.00
2023-02-06T09:49:48.399Z,14458.00
2023-02-06T09:50:48.418Z,15338.00
2023-02-06T09:51:48.501Z,15740.00
2023-02-06T09:52:48.387Z,15031.00
2023-02-06T09:53:48.388Z,7915.00
2023-02-06T09:54:48.375Z,15304.00
2023-02-06T09:55:48.365Z,15145.00
2023-02-06T09:56:48.385Z,14712.00
2023-02-06T09:57:48.377Z,14559.00
2023-02-06T09:58:48.364Z,14313.00
2023-02-06T10:01:02.543Z,13617.00
2023-02-06T10:02:02.578Z,4419.00
2023-02-06T10:03:02.563Z,4260.00
2023-02-06T10:04:02.606Z,3832.00
2023-02-06T10:05:02.548Z,7209.00
2023-02-06T10:06:02.555Z,15773.00
2023-02-06T10:07:02.556Z,12550.00
2023-02-06T10:08:02.552Z,15328.00
2023-02-06T10:09:02.519Z,14650.00
2023-02-06T10:10:02.513Z,13578.00
2023-02-06T10:11:02.513Z,11857.00
2023-02-06T10:12:02.497Z,9936.00
2023-02-06T10:13:02.504Z,2991.00
2023-02-06T10:14:02.508Z,13823.00
2023-02-06T10:15:02.469Z,3851.00
2023-02-06T10:16:02.499Z,13309.00
2023-02-06T10:17:02.482Z,5636.00
2023-02-06T10:18:02.464Z,12832.00
2023-02-06T10:19:02.463Z,13942.00
2023-02-06T10:20:02.456Z,14743.00
2023-02-06T10:21:02.427Z,13576.00
2023-02-06T10:22:02.424Z,12722.00
2023-02-06T10:23:02.411Z,12206.00
2023-02-06T10:24:02.404Z,8847.00
2023-02-06T10:25:02.418Z,12558.00
2023-02-06T10:26:02.408Z,12729.00
2023-02-06T10:27:02.386Z,12686.00
2023-02-06T10:28:02.456Z,13034.00
2023-02-06T10:29:02.372Z,9480.00
2023-02-06T10:30:02.360Z,12312.00
2023-02-06T10:31:02.474Z,2991.00
2023-02-06T10:32:02.361Z,10279.00
2023-02-06T10:33:02.350Z,13301.00
2023-02-06T10:34:02.347Z,12006.00
2023-02-06T10:35:02.346Z,12677.00
2023-02-06T10:36:02.331Z,4052.00
2023-02-06T10:37:02.319Z,12336.00
2023-02-06T10:38:02.309Z,11927.00
2023-02-06T10:39:02.327Z,2751.00
2023-02-06T10:40:02.322Z,2224.00
2023-02-06T10:41:02.295Z,2046.00
2023-02-06T10:42:02.282Z,2147.00
2023-02-06T10:43:02.296Z,2574.00
2023-02-06T10:44:02.294Z,2770.00
2023-02-06T10:45:18.474Z,2392.00
2023-02-06T10:46:03.289Z,2247.00
2023-02-06T10:47:02.357Z,1513.00
2023-02-06T10:48:02.273Z,1533.00
2023-02-06T10:49:02.224Z,2026.00
2023-02-06T10:50:02.243Z,2250.00
2023-02-06T10:51:02.249Z,2874.00
2023-02-06T10:52:02.209Z,2479.00
2023-02-06T10:53:02.215Z,2702.00
2023-02-06T10:54:02.201Z,2824.00
2023-02-06T10:55:02.188Z,2005.00
2023-02-06T10:56:02.216Z,2012.00
2023-02-06T10:57:02.177Z,2292.00
2023-02-06T10:58:02.186Z,6908.00
2023-02-06T10:59:02.156Z,3516.00
2023-02-06T11:00:02.159Z,2582.00
2023-02-06T11:01:02.193Z,3863.00
2023-02-06T11:02:02.173Z,11414.00
2023-02-06T11:03:07.727Z,11036.00
2023-02-06T11:04:03.138Z,3867.00
2023-02-06T11:05:02.113Z,5521.00
2023-02-06T11:06:02.115Z,9190.00
2023-02-06T11:07:02.102Z,8556.00
2023-02-06T11:08:02.116Z,6575.00
2023-02-06T11:09:02.084Z,6346.00
2023-02-06T11:10:02.110Z,6202.00
2023-02-06T11:11:02.077Z,5746.00
2023-02-06T11:12:02.080Z,4672.00
2023-02-06T11:13:02.101Z,5086.00
2023-02-06T11:14:02.062Z,3756.00
2023-02-06T11:15:02.045Z,3030.00
2023-02-06T11:16:02.068Z,3292.00
2023-02-06T11:17:02.057Z,3905.00
2023-02-06T11:18:02.023Z,3098.00
2023-02-06T11:19:02.012Z,2362.00
2023-02-06T11:20:02.031Z,2247.00
2023-02-06T11:21:01.998Z,2361.00
2023-02-06T11:22:01.986Z,3742.00
2023-02-06T11:23:02.004Z,2388.00
2023-02-06T11:24:01.999Z,2354.00
2023-02-06T11:25:01.973Z,2469.00
2023-02-06T11:26:01.964Z,5784.00
2023-02-06T11:27:01.970Z,4852.00
2023-02-06T11:28:01.997Z,3353.00
2023-02-06T11:29:01.948Z,2397.00
2023-02-06T11:30:02.004Z,3064.00
2023-02-06T11:31:02.013Z,4716.00
2023-02-06T11:32:01.975Z,4675.00
2023-02-06T11:33:04.663Z,4993.00
2023-02-06T11:34:01.919Z,4968.00
2023-02-06T11:35:01.909Z,4912.00
2023-02-06T11:36:01.902Z,4879.00
2023-02-06T11:37:01.921Z,4899.00
2023-02-06T11:38:02.864Z,2625.00
2023-02-06T11:39:01.913Z,4933.00
2023-02-06T11:40:01.930Z,4871.00
2023-02-06T11:41:01.882Z,4865.00
2023-02-06T11:42:01.872Z,4774.00
2023-02-06T11:43:01.851Z,4782.00
2023-02-06T11:44:01.836Z,4810.00
2023-02-06T11:45:01.829Z,4838.00
2023-02-06T11:46:01.920Z,4905.00
2023-02-06T11:47:01.849Z,4921.00
2023-02-06T11:48:01.829Z,4888.00
2023-02-06T11:49:01.811Z,4419.00
2023-02-06T11:50:01.806Z,4819.00
2023-02-06T11:51:01.825Z,4643.00
2023-02-06T11:52:01.869Z,4757.00
2023-02-06T11:53:01.810Z,4717.00
2023-02-06T11:54:01.778Z,4792.00
2023-02-06T11:55:01.811Z,4775.00
2023-02-06T11:56:01.773Z,4844.00
2023-02-06T11:57:01.760Z,4786.00
2023-02-06T11:58:01.778Z,4663.00
2023-02-06T11:59:01.758Z,4592.00
2023-02-06T12:00:01.790Z,4552.00
2023-02-06T12:01:01.737Z,3969.00
2023-02-06T12:02:01.785Z,4589.00
2023-02-06T12:03:01.718Z,4577.00
2023-02-06T12:04:01.736Z,4557.00
2023-02-06T12:05:01.717Z,3031.00
2023-02-06T12:06:03.111Z,1861.00
2023-02-06T12:07:01.705Z,4594.00
2023-02-06T12:08:01.733Z,1938.00
2023-02-06T12:09:01.720Z,2533.00
2023-02-06T12:10:01.705Z,2798.00
2023-02-06T12:11:01.679Z,2055.00
2023-02-06T12:12:01.676Z,3928.00
2023-02-06T12:13:01.673Z,3099.00
2023-02-06T12:14:01.660Z,2237.00
2023-02-06T12:15:13.866Z,2520.00
2023-02-06T12:16:02.660Z,1693.00
2023-02-06T12:17:01.644Z,1621.00
2023-02-06T12:18:01.648Z,1620.00
2023-02-06T12:19:01.622Z,1596.00
2023-02-06T12:20:01.642Z,1541.00
2023-02-06T12:21:01.620Z,1719.00
2023-02-06T12:22:01.629Z,4036.00
2023-02-06T12:23:01.617Z,4051.00
2023-02-06T12:24:01.595Z,2065.00
2023-02-06T12:25:01.604Z,1715.00
2023-02-06T12:26:01.629Z,1505.00
2023-02-06T12:27:01.586Z,1483.00
2023-02-06T12:28:01.640Z,1488.00
2023-02-06T12:29:01.561Z,1542.00
2023-02-06T12:30:01.555Z,1463.00
2023-02-06T12:31:01.697Z,1440.00
2023-02-06T12:32:01.584Z,1385.00
2023-02-06T12:33:01.594Z,1396.00
2023-02-06T12:34:01.548Z,1451.00
2023-02-06T12:35:01.530Z,3319.00
2023-02-06T12:36:01.532Z,1404.00
2023-02-06T12:37:01.507Z,1253.00
2023-02-06T12:38:01.548Z,1117.00
2023-02-06T12:39:01.491Z,991.00
2023-02-06T12:40:01.513Z,915.00
2023-02-06T12:41:01.471Z,853.00
2023-02-06T12:42:01.466Z,786.00
2023-02-06T12:43:01.473Z,780.00
2023-02-06T12:44:01.454Z,823.00
2023-02-06T12:45:01.465Z,888.00
2023-02-06T12:46:01.474Z,957.00
2023-02-06T12:47:01.447Z,969.00
2023-02-06T12:48:01.429Z,933.00
2023-02-06T12:49:01.429Z,878.00